Impacts TAF Board
For situational awareness. Not to be used for flight planning purposes.
IDs:

KCLE - Cleveland/Hopkins In, OH, US

Issued at 2332 UTC 19 Mar 2019
Updated at 0246 UTC 20 Mar 2019
Potential Impact None Slight Moderate High
Time<<21/03Z 21/04Z 21/05Z 21/06Z 21/07Z 21/08Z 21/09Z 21/10Z 21/11Z 21/12Z 21/13Z 21/14Z 21/15Z
Type PRVL PRVL PRVL
VIS >6 >6 >6
CIG 30 30 30
Cover OVC OVC OVC
FltCat MVFR MVFR MVFR
WX -RA -RA -RA
WDir 190 190 190
WSpd 12 12 12
WGst -- -- --
Raw TAF
KCLE 192332Z 2000/2106 VRB03KT P6SM SCT250
  FM201600 19008KT P6SM SCT050 BKN150
  FM202100 20010G20KT P6SM BKN050
  FM210300 19012KT P6SM -RA OVC030


METAR Board
Radar Display
Forecast Discussion
For situational awareness. Not to be used for flight planning purposes.